createdAt,value
2023-09-29T00:00:21.825Z,17.60
2023-09-29T00:02:51.723Z,17.50
2023-09-29T00:05:20.386Z,17.50
2023-09-29T00:07:48.952Z,17.50
2023-09-29T00:10:18.919Z,17.50
2023-09-29T00:12:47.751Z,17.60
2023-09-29T00:15:18.076Z,17.60
2023-09-29T00:17:46.468Z,17.60
2023-09-29T00:20:19.385Z,17.60
2023-09-29T00:22:48.085Z,17.70
2023-09-29T00:25:16.426Z,17.70
2023-09-29T00:27:46.223Z,17.70
2023-09-29T00:30:15.892Z,17.70
2023-09-29T00:32:48.406Z,17.70
2023-09-29T00:35:22.828Z,17.80
2023-09-29T00:37:51.038Z,17.80
2023-09-29T00:40:19.528Z,17.80
2023-09-29T00:42:50.047Z,17.80
2023-09-29T00:45:20.871Z,17.80
2023-09-29T00:47:51.625Z,17.80
2023-09-29T00:50:21.879Z,17.80
2023-09-29T00:52:54.342Z,17.80
2023-09-29T00:55:27.663Z,17.80
2023-09-29T00:58:00.033Z,17.80
2023-09-29T01:00:33.502Z,17.80
2023-09-29T01:03:06.201Z,17.80
2023-09-29T01:05:39.371Z,17.80
2023-09-29T01:08:10.480Z,17.80
2023-09-29T01:10:38.834Z,17.90
2023-09-29T01:13:09.628Z,17.90
2023-09-29T01:15:37.929Z,17.80
2023-09-29T01:18:07.652Z,17.80
2023-09-29T01:20:35.928Z,17.80
2023-09-29T01:23:05.515Z,17.80
2023-09-29T01:25:35.135Z,17.90
2023-09-29T01:28:06.405Z,17.90
2023-09-29T01:30:35.052Z,17.90
2023-09-29T01:33:03.749Z,17.90
2023-09-29T01:35:31.945Z,17.90
2023-09-29T01:38:01.317Z,17.90
2023-09-29T01:40:30.690Z,17.90
2023-09-29T01:43:00.254Z,17.90
2023-09-29T01:45:29.228Z,17.90
2023-09-29T01:47:57.545Z,17.80
2023-09-29T01:50:27.602Z,17.80
2023-09-29T01:52:55.672Z,17.80
2023-09-29T01:55:25.612Z,17.80
2023-09-29T01:57:55.955Z,17.80
2023-09-29T02:00:26.893Z,17.80
2023-09-29T02:02:57.165Z,17.80
2023-09-29T02:05:26.046Z,17.80
2023-09-29T02:07:54.763Z,17.80
2023-09-29T02:10:25.643Z,17.80
2023-09-29T02:12:57.900Z,17.80
2023-09-29T02:15:30.067Z,17.70
2023-09-29T02:17:59.488Z,17.70
2023-09-29T02:20:31.364Z,17.70
2023-09-29T02:23:00.714Z,17.80
2023-09-29T02:25:30.821Z,17.70
2023-09-29T02:28:00.683Z,17.70
2023-09-29T02:30:31.074Z,17.70
2023-09-29T02:32:59.716Z,17.70
2023-09-29T02:35:28.024Z,17.70
2023-09-29T02:37:56.794Z,17.60
2023-09-29T02:40:25.337Z,17.60
2023-09-29T02:42:55.103Z,17.60
2023-09-29T02:45:25.795Z,17.50
2023-09-29T02:47:55.388Z,17.50
2023-09-29T02:50:26.243Z,17.60
2023-09-29T02:52:54.946Z,17.60
2023-09-29T02:55:24.033Z,17.60
2023-09-29T02:57:52.226Z,17.60
2023-09-29T03:00:21.404Z,17.60
2023-09-29T03:02:52.485Z,17.60
2023-09-29T03:05:23.114Z,17.60
2023-09-29T03:07:54.226Z,17.70
2023-09-29T03:10:26.367Z,17.60
2023-09-29T03:12:57.960Z,17.60
2023-09-29T03:15:27.252Z,17.60
2023-09-29T03:17:58.912Z,17.60
2023-09-29T03:20:29.817Z,17.60
2023-09-29T03:23:05.205Z,17.60
2023-09-29T03:25:33.633Z,17.60
2023-09-29T03:28:01.808Z,17.60
2023-09-29T03:30:32.304Z,17.60
2023-09-29T03:33:00.490Z,17.60
2023-09-29T03:35:30.548Z,17.60
2023-09-29T03:37:58.720Z,17.50
2023-09-29T03:40:27.573Z,17.50
2023-09-29T03:42:55.667Z,17.50
2023-09-29T03:45:23.648Z,17.50
2023-09-29T03:47:52.557Z,17.60
2023-09-29T03:50:20.749Z,17.60
2023-09-29T03:52:50.145Z,17.70
2023-09-29T03:55:18.627Z,17.70
2023-09-29T03:57:46.656Z,17.60
2023-09-29T04:00:17.652Z,17.60
2023-09-29T04:02:47.034Z,17.50
2023-09-29T04:05:16.027Z,17.50
2023-09-29T04:07:45.036Z,17.60
2023-09-29T04:10:15.560Z,17.60
2023-09-29T04:12:47.210Z,17.60
2023-09-29T04:15:16.478Z,17.50
2023-09-29T04:17:44.919Z,17.50
2023-09-29T04:20:14.204Z,17.40
2023-09-29T04:22:42.300Z,17.40
2023-09-29T04:25:12.391Z,17.40
2023-09-29T04:27:42.516Z,17.50
2023-09-29T04:30:13.421Z,17.50
2023-09-29T04:32:41.791Z,17.50
2023-09-29T04:35:11.215Z,17.50
2023-09-29T04:37:39.264Z,17.50
2023-09-29T04:40:08.733Z,17.60
2023-09-29T04:42:36.897Z,17.50
2023-09-29T04:45:07.762Z,17.60
2023-09-29T04:47:36.027Z,17.60
2023-09-29T04:50:05.187Z,17.60
2023-09-29T04:52:33.208Z,17.50
2023-09-29T04:55:01.645Z,17.60
2023-09-29T04:57:29.650Z,17.60
2023-09-29T04:59:57.906Z,17.60
2023-09-29T05:02:30.408Z,17.60
2023-09-29T05:04:58.879Z,17.60
2023-09-29T05:07:26.941Z,17.60
2023-09-29T05:09:54.981Z,17.60
2023-09-29T05:12:23.625Z,17.60
2023-09-29T05:14:51.636Z,17.60
2023-09-29T05:17:19.656Z,17.60
2023-09-29T05:19:49.027Z,17.60
2023-09-29T05:22:17.121Z,17.60
2023-09-29T05:24:45.751Z,17.60
2023-09-29T05:27:13.820Z,17.60
2023-09-29T05:29:41.866Z,17.60
2023-09-29T05:32:10.026Z,17.70
2023-09-29T05:34:38.130Z,17.80
2023-09-29T05:37:07.454Z,17.80
2023-09-29T05:39:35.464Z,17.80
2023-09-29T05:42:03.692Z,17.80
2023-09-29T05:44:31.812Z,17.70
2023-09-29T05:46:59.851Z,17.70
2023-09-29T05:49:27.899Z,17.70
2023-09-29T05:51:55.984Z,17.70
2023-09-29T05:54:25.390Z,17.70
2023-09-29T05:56:53.390Z,17.80
2023-09-29T05:59:21.432Z,17.70
2023-09-29T06:01:49.522Z,17.70
2023-09-29T06:04:17.664Z,17.70
2023-09-29T06:06:46.431Z,17.70
2023-09-29T06:09:14.515Z,17.70
2023-09-29T06:11:43.958Z,17.70
2023-09-29T06:14:12.032Z,17.80
2023-09-29T06:16:40.164Z,17.80
2023-09-29T06:19:08.521Z,17.80
2023-09-29T06:21:36.769Z,17.90
2023-09-29T06:24:06.174Z,17.90
2023-09-29T06:26:35.090Z,17.90
2023-09-29T06:29:07.037Z,17.90
2023-09-29T06:31:35.045Z,17.90
2023-09-29T06:34:03.597Z,18.00
2023-09-29T06:36:31.697Z,18.00
2023-09-29T06:38:59.757Z,18.00
2023-09-29T06:41:27.816Z,18.00
2023-09-29T06:43:55.987Z,18.10
2023-09-29T06:46:25.425Z,18.00
2023-09-29T06:48:54.689Z,18.10
2023-09-29T06:51:22.719Z,18.20
2023-09-29T06:53:50.805Z,18.20
2023-09-29T06:56:18.961Z,18.30
2023-09-29T06:58:47.801Z,18.30
2023-09-29T07:01:16.233Z,18.40
2023-09-29T07:03:47.132Z,18.40
2023-09-29T07:06:15.506Z,18.60
2023-09-29T07:08:43.747Z,18.70
2023-09-29T07:11:11.824Z,18.80
2023-09-29T07:13:39.819Z,18.80
2023-09-29T07:16:07.929Z,18.80
2023-09-29T07:18:36.349Z,18.80
2023-09-29T07:21:05.963Z,18.80
2023-09-29T07:23:35.806Z,18.80
2023-09-29T07:26:03.974Z,18.80
2023-09-29T07:28:31.922Z,18.90
2023-09-29T07:31:00.376Z,18.90
2023-09-29T07:33:28.619Z,18.80
2023-09-29T07:35:56.738Z,19.00
2023-09-29T07:38:26.357Z,19.10
2023-09-29T07:40:54.337Z,19.10
2023-09-29T07:43:23.024Z,19.20
2023-09-29T07:45:51.065Z,19.30
2023-09-29T07:48:19.185Z,19.30
2023-09-29T07:50:47.290Z,19.30
2023-09-29T07:53:15.307Z,19.40
2023-09-29T07:55:44.669Z,19.50
2023-09-29T07:58:12.607Z,19.60
2023-09-29T08:00:40.646Z,19.70
2023-09-29T08:03:08.712Z,19.80
2023-09-29T08:05:36.952Z,20.00
2023-09-29T08:08:05.644Z,20.00
2023-09-29T08:10:33.865Z,20.10
2023-09-29T08:13:03.239Z,20.10
2023-09-29T08:15:31.306Z,20.10
2023-09-29T08:17:59.548Z,20.20
2023-09-29T08:20:27.808Z,20.30
2023-09-29T08:22:55.899Z,20.50
2023-09-29T08:25:23.839Z,20.50
2023-09-29T08:27:51.835Z,20.60
2023-09-29T08:30:21.402Z,20.80
2023-09-29T08:32:56.672Z,21.00
2023-09-29T08:35:30.999Z,21.20
2023-09-29T08:37:59.982Z,21.30
2023-09-29T08:40:28.233Z,21.50
2023-09-29T08:42:56.556Z,21.70
2023-09-29T08:45:30.282Z,22.00
2023-09-29T08:48:01.196Z,22.20
2023-09-29T08:50:29.931Z,22.30
2023-09-29T08:53:01.974Z,22.50
2023-09-29T08:55:31.722Z,22.70
2023-09-29T08:58:02.404Z,22.70
2023-09-29T09:00:32.939Z,22.40
2023-09-29T09:03:03.097Z,22.20
2023-09-29T09:05:31.852Z,22.20
2023-09-29T09:08:02.615Z,22.30
2023-09-29T09:10:35.384Z,22.20
2023-09-29T09:13:04.094Z,22.20
2023-09-29T09:15:33.819Z,22.40
2023-09-29T09:18:02.636Z,22.60
2023-09-29T09:20:31.407Z,22.50
2023-09-29T09:23:00.750Z,22.70
2023-09-29T09:25:37.367Z,22.80
2023-09-29T09:28:06.813Z,22.60
2023-09-29T09:30:38.934Z,22.40
2023-09-29T09:33:08.001Z,22.20
2023-09-29T09:35:39.297Z,22.20
2023-09-29T09:38:09.048Z,22.20
2023-09-29T09:40:37.285Z,22.20
2023-09-29T09:43:06.774Z,22.30
2023-09-29T09:45:40.946Z,22.40
2023-09-29T09:48:11.979Z,22.50
2023-09-29T09:50:45.552Z,22.60
2023-09-29T09:53:15.645Z,22.60
2023-09-29T09:55:51.877Z,22.70
2023-09-29T09:58:22.624Z,22.60
2023-09-29T10:00:56.176Z,22.60
2023-09-29T10:03:26.960Z,22.80
2023-09-29T10:05:56.853Z,23.00
2023-09-29T10:08:31.385Z,22.90
2023-09-29T10:11:12.112Z,23.10
2023-09-29T10:13:41.934Z,23.10
2023-09-29T10:16:22.285Z,23.50
2023-09-29T10:18:57.644Z,23.60
2023-09-29T10:21:26.606Z,24.10
2023-09-29T10:23:54.876Z,24.60
2023-09-29T10:26:23.049Z,24.40
2023-09-29T10:29:02.419Z,24.50
2023-09-29T10:31:31.903Z,24.10
2023-09-29T10:34:01.252Z,23.90
2023-09-29T10:36:30.795Z,23.40
2023-09-29T10:39:01.143Z,23.00
2023-09-29T10:41:36.414Z,22.90
2023-09-29T10:44:06.955Z,23.10
2023-09-29T10:46:37.990Z,23.60
2023-09-29T10:49:06.681Z,24.20
2023-09-29T10:51:34.821Z,24.20
2023-09-29T10:54:06.905Z,24.60
2023-09-29T10:56:37.679Z,25.60
2023-09-29T10:59:07.361Z,25.20
2023-09-29T11:01:37.200Z,25.10
2023-09-29T11:04:09.060Z,24.40
2023-09-29T11:06:42.766Z,25.00
2023-09-29T11:09:17.724Z,25.40
2023-09-29T11:11:46.366Z,25.20
2023-09-29T11:14:14.517Z,26.00
2023-09-29T11:16:43.901Z,24.80
2023-09-29T11:19:14.427Z,23.90
2023-09-29T11:21:43.587Z,23.30
2023-09-29T11:24:14.044Z,23.60
2023-09-29T11:26:43.128Z,23.40
2023-09-29T11:29:21.981Z,23.10
2023-09-29T11:31:52.588Z,23.00
2023-09-29T11:34:20.741Z,22.90
2023-09-29T11:36:49.584Z,23.50
2023-09-29T11:39:19.643Z,23.70
2023-09-29T11:41:48.659Z,24.20
2023-09-29T11:44:17.434Z,24.90
2023-09-29T11:46:45.590Z,24.60
2023-09-29T11:49:14.939Z,24.30
2023-09-29T11:51:42.902Z,23.50
2023-09-29T11:54:10.937Z,23.30
2023-09-29T11:56:39.189Z,23.10
2023-09-29T11:59:07.903Z,22.80
2023-09-29T12:01:35.932Z,22.70
2023-09-29T12:04:04.115Z,22.70
2023-09-29T12:06:33.520Z,22.70
2023-09-29T12:09:01.693Z,22.80
2023-09-29T12:11:29.839Z,22.80
2023-09-29T12:13:58.783Z,22.80
2023-09-29T12:16:26.960Z,22.80
2023-09-29T12:18:56.932Z,22.70
2023-09-29T12:21:25.321Z,22.60
2023-09-29T12:23:56.284Z,22.50
2023-09-29T12:26:24.644Z,22.50
2023-09-29T12:28:52.656Z,22.40
2023-09-29T12:31:20.773Z,22.30
2023-09-29T12:33:49.135Z,22.10
2023-09-29T12:36:17.252Z,21.80
2023-09-29T12:38:45.430Z,21.60
2023-09-29T12:41:16.677Z,21.70
2023-09-29T12:43:45.700Z,21.70
2023-09-29T12:46:13.778Z,21.80
2023-09-29T12:48:41.885Z,21.80
2023-09-29T12:51:22.756Z,21.80
2023-09-29T12:53:56.109Z,21.50
2023-09-29T12:56:27.051Z,21.00
2023-09-29T12:58:56.351Z,20.80
2023-09-29T13:01:24.663Z,20.40
2023-09-29T13:03:52.954Z,20.30
2023-09-29T13:06:22.557Z,20.30
2023-09-29T13:08:50.833Z,20.30
2023-09-29T13:11:19.129Z,20.40
2023-09-29T13:13:48.873Z,20.90
2023-09-29T13:16:17.451Z,21.50
2023-09-29T13:18:46.500Z,21.70
2023-09-29T13:21:15.030Z,21.60
2023-09-29T13:23:44.495Z,22.00
2023-09-29T13:26:12.745Z,22.20
2023-09-29T13:28:40.929Z,22.00
2023-09-29T13:31:10.327Z,21.80
2023-09-29T13:33:38.440Z,21.50
2023-09-29T13:36:07.418Z,21.30
2023-09-29T13:38:35.498Z,21.10
2023-09-29T13:41:03.547Z,21.20
2023-09-29T13:43:31.648Z,21.30
2023-09-29T13:45:59.642Z,21.50
2023-09-29T13:48:29.110Z,21.40
2023-09-29T13:50:57.258Z,21.40
2023-09-29T13:53:25.304Z,21.20
2023-09-29T13:55:53.571Z,21.20
2023-09-29T13:58:21.562Z,21.20
2023-09-29T14:00:51.327Z,21.10
2023-09-29T14:03:19.697Z,21.10
2023-09-29T14:05:49.388Z,21.00
2023-09-29T14:08:18.212Z,21.00
2023-09-29T14:10:46.205Z,20.90
2023-09-29T14:13:14.249Z,20.70
2023-09-29T14:15:42.219Z,20.50
2023-09-29T14:18:10.295Z,20.30
2023-09-29T14:20:38.556Z,20.10
2023-09-29T14:23:09.184Z,19.90
2023-09-29T14:25:37.389Z,19.80
2023-09-29T14:28:07.253Z,19.80
2023-09-29T14:30:37.585Z,19.70
2023-09-29T14:33:06.306Z,19.50
2023-09-29T14:35:47.894Z,19.40
2023-09-29T14:38:19.376Z,19.50
2023-09-29T14:40:47.547Z,19.50
2023-09-29T14:43:16.343Z,19.60
2023-09-29T14:45:45.662Z,19.60
2023-09-29T14:48:14.057Z,19.60
2023-09-29T14:50:42.281Z,19.60
2023-09-29T14:53:10.307Z,19.40
2023-09-29T14:55:40.948Z,19.30
2023-09-29T14:58:12.662Z,19.30
2023-09-29T15:00:44.418Z,19.30
2023-09-29T15:03:14.861Z,19.20
2023-09-29T15:10:20.746Z,19.10
2023-09-29T15:12:50.127Z,19.10
2023-09-29T15:15:18.211Z,19.10
2023-09-29T15:17:46.262Z,19.20
2023-09-29T15:20:16.309Z,19.30
2023-09-29T15:22:44.418Z,19.40
2023-09-29T15:25:12.569Z,19.30
2023-09-29T15:27:42.134Z,19.30
2023-09-29T15:30:14.998Z,19.30
2023-09-29T15:32:43.348Z,19.20
2023-09-29T15:35:12.382Z,19.10
2023-09-29T15:37:40.852Z,19.10
2023-09-29T15:40:12.297Z,19.10
2023-09-29T15:42:40.853Z,19.10
2023-09-29T15:45:11.679Z,19.10
2023-09-29T15:47:39.878Z,19.10
2023-09-29T15:50:09.143Z,19.20
2023-09-29T15:52:38.273Z,19.10
2023-09-29T15:55:07.561Z,19.10
2023-09-29T15:57:36.235Z,19.10
2023-09-29T16:00:05.728Z,19.20
2023-09-29T16:02:38.286Z,19.20
2023-09-29T16:05:07.926Z,19.20
2023-09-29T16:07:45.001Z,19.10
2023-09-29T16:10:14.160Z,19.00
2023-09-29T16:12:43.073Z,19.00
2023-09-29T16:15:12.014Z,18.90
2023-09-29T16:17:54.237Z,18.90
2023-09-29T16:20:22.260Z,18.90
2023-09-29T16:22:50.233Z,18.70
2023-09-29T16:25:18.404Z,18.70
2023-09-29T16:27:46.962Z,18.70
2023-09-29T16:30:15.525Z,18.60
2023-09-29T16:32:45.051Z,18.60
2023-09-29T16:35:24.008Z,18.50
2023-09-29T16:37:59.334Z,18.50
2023-09-29T16:40:29.145Z,18.50
2023-09-29T16:42:59.518Z,18.50
2023-09-29T16:45:27.975Z,18.40
2023-09-29T16:47:57.389Z,18.40
2023-09-29T16:50:25.475Z,18.40
2023-09-29T16:52:53.470Z,18.30
2023-09-29T16:55:21.442Z,18.40
2023-09-29T16:57:49.479Z,18.30
2023-09-29T17:00:18.518Z,18.30
2023-09-29T17:02:46.590Z,18.30
2023-09-29T17:05:17.782Z,18.30
2023-09-29T17:07:45.848Z,18.20
2023-09-29T17:10:14.188Z,18.20
2023-09-29T17:12:42.269Z,18.10
2023-09-29T17:15:12.277Z,18.10
2023-09-29T17:17:40.687Z,18.10
2023-09-29T17:20:11.156Z,18.10
2023-09-29T17:22:40.577Z,18.10
2023-09-29T17:25:10.255Z,18.10
2023-09-29T17:27:38.503Z,18.00
2023-09-29T17:30:08.081Z,18.00
2023-09-29T17:32:36.390Z,18.00
2023-09-29T17:35:04.587Z,18.00
2023-09-29T17:37:32.795Z,18.00
2023-09-29T17:40:02.133Z,18.00
2023-09-29T17:42:30.336Z,17.90
2023-09-29T17:44:58.576Z,17.90
2023-09-29T17:47:26.803Z,17.90
2023-09-29T17:49:55.156Z,17.90
2023-09-29T17:52:23.596Z,17.80
2023-09-29T17:54:51.682Z,17.80
2023-09-29T17:57:21.185Z,17.80
2023-09-29T17:59:49.441Z,17.70
2023-09-29T18:02:17.504Z,17.70
2023-09-29T18:04:46.593Z,17.70
2023-09-29T18:07:16.468Z,17.70
2023-09-29T18:09:44.550Z,17.70
2023-09-29T18:12:12.727Z,17.60
2023-09-29T18:14:43.704Z,17.60
2023-09-29T18:17:11.691Z,17.60
2023-09-29T18:19:39.743Z,17.50
2023-09-29T18:22:07.762Z,17.50
2023-09-29T18:24:36.123Z,17.40
2023-09-29T18:27:04.537Z,17.40
2023-09-29T18:29:32.635Z,17.40
2023-09-29T18:32:02.283Z,17.30
2023-09-29T18:34:30.325Z,17.30
2023-09-29T18:36:58.378Z,17.30
2023-09-29T18:39:26.461Z,17.30
2023-09-29T18:41:54.597Z,17.20
2023-09-29T18:44:24.379Z,17.20
2023-09-29T18:46:52.416Z,17.20
2023-09-29T18:49:21.779Z,17.10
2023-09-29T18:51:49.865Z,17.10
2023-09-29T18:54:18.155Z,17.10
2023-09-29T18:56:46.219Z,17.00
2023-09-29T18:59:15.486Z,17.00
2023-09-29T19:01:43.541Z,17.00
2023-09-29T19:04:13.494Z,16.90
2023-09-29T19:06:43.848Z,16.90
2023-09-29T19:09:13.282Z,16.80
2023-09-29T19:11:41.323Z,16.80
2023-09-29T19:14:12.074Z,16.70
2023-09-29T19:16:40.409Z,16.70
2023-09-29T19:19:14.683Z,16.60
2023-09-29T19:21:45.171Z,16.50
2023-09-29T19:24:13.215Z,16.50
2023-09-29T19:26:41.409Z,16.40
2023-09-29T19:29:09.424Z,16.40
2023-09-29T19:31:37.551Z,16.30
2023-09-29T19:34:06.640Z,16.30
2023-09-29T19:36:35.395Z,16.20
2023-09-29T19:39:05.493Z,16.10
2023-09-29T19:41:34.054Z,16.10
2023-09-29T19:44:02.060Z,16.10
2023-09-29T19:46:29.695Z,16.00
2023-09-29T19:48:59.229Z,16.00
2023-09-29T19:51:27.701Z,15.90
2023-09-29T19:53:56.557Z,15.80
2023-09-29T19:56:31.458Z,15.80
2023-09-29T19:58:59.441Z,15.80
2023-09-29T20:01:27.694Z,15.70
2023-09-29T20:03:56.097Z,15.70
2023-09-29T20:06:24.556Z,15.60
2023-09-29T20:08:53.970Z,15.50
2023-09-29T20:11:23.512Z,15.40
2023-09-29T20:13:52.960Z,15.40
2023-09-29T20:16:21.545Z,15.40
2023-09-29T20:18:49.936Z,15.30
2023-09-29T20:21:18.436Z,15.30
2023-09-29T20:23:46.815Z,15.20
2023-09-29T20:26:14.848Z,15.20
2023-09-29T20:28:44.133Z,15.20
2023-09-29T20:31:13.585Z,15.20
2023-09-29T20:33:41.704Z,15.20
2023-09-29T20:36:10.010Z,15.20
2023-09-29T20:38:38.082Z,15.10
2023-09-29T20:41:06.552Z,15.10
2023-09-29T20:43:34.571Z,15.10
2023-09-29T20:46:02.663Z,15.10
2023-09-29T20:48:32.158Z,15.00
2023-09-29T20:51:00.247Z,15.00
2023-09-29T20:53:29.665Z,15.00
2023-09-29T20:55:57.799Z,15.10
2023-09-29T20:58:25.856Z,15.10
2023-09-29T21:00:58.517Z,15.10
2023-09-29T21:03:27.886Z,15.00
2023-09-29T21:05:57.511Z,14.90
2023-09-29T21:08:25.523Z,14.80
2023-09-29T21:10:57.556Z,14.70
2023-09-29T21:13:25.568Z,14.60
2023-09-29T21:15:54.278Z,14.50
2023-09-29T21:18:22.626Z,14.50
2023-09-29T21:20:54.278Z,14.40
2023-09-29T21:23:23.689Z,14.20
2023-09-29T21:25:51.781Z,14.10
2023-09-29T21:28:19.781Z,14.00
2023-09-29T21:30:48.148Z,14.00
2023-09-29T21:33:16.251Z,13.90
2023-09-29T21:35:44.419Z,13.80
2023-09-29T21:38:12.508Z,13.70
2023-09-29T21:40:41.851Z,13.70
2023-09-29T21:43:09.849Z,13.60
2023-09-29T21:45:38.034Z,13.60
2023-09-29T21:48:06.838Z,13.50
2023-09-29T21:50:34.935Z,13.60
2023-09-29T21:53:03.303Z,13.60
2023-09-29T21:55:31.383Z,13.60
2023-09-29T21:58:02.997Z,13.50
2023-09-29T22:00:39.728Z,13.50
2023-09-29T22:03:09.213Z,13.30
2023-09-29T22:05:39.418Z,13.30
2023-09-29T22:08:08.523Z,13.30
2023-09-29T22:10:36.890Z,13.30
2023-09-29T22:13:07.001Z,13.20
2023-09-29T22:15:35.209Z,13.10
2023-09-29T22:18:04.597Z,13.10
2023-09-29T22:20:34.516Z,13.10
2023-09-29T22:23:02.620Z,13.10
2023-09-29T22:25:30.934Z,13.10
2023-09-29T22:27:59.153Z,13.00
2023-09-29T22:30:28.983Z,13.10
2023-09-29T22:32:57.111Z,13.10
2023-09-29T22:35:25.338Z,13.10
2023-09-29T22:37:53.405Z,13.10
2023-09-29T22:40:21.663Z,12.90
2023-09-29T22:42:49.678Z,12.90
2023-09-29T22:45:17.855Z,12.80
2023-09-29T22:47:47.276Z,12.90
2023-09-29T22:50:16.212Z,12.90
2023-09-29T22:52:44.335Z,13.00
2023-09-29T22:55:13.165Z,12.90
2023-09-29T22:57:41.947Z,12.80
2023-09-29T23:00:13.108Z,12.80
2023-09-29T23:02:43.861Z,12.70
2023-09-29T23:05:13.691Z,12.80
2023-09-29T23:07:41.716Z,12.80
2023-09-29T23:10:10.973Z,12.70
2023-09-29T23:12:41.584Z,12.70
2023-09-29T23:15:11.011Z,12.60
2023-09-29T23:17:39.178Z,12.70
2023-09-29T23:20:11.328Z,12.70
2023-09-29T23:22:42.233Z,12.60
2023-09-29T23:25:12.495Z,12.60
2023-09-29T23:27:41.145Z,12.60
2023-09-29T23:30:13.077Z,12.60
2023-09-29T23:32:41.326Z,12.60
2023-09-29T23:35:10.829Z,12.60
2023-09-29T23:37:38.928Z,12.50
2023-09-29T23:40:09.193Z,12.60
2023-09-29T23:42:37.191Z,12.50
2023-09-29T23:45:07.462Z,12.40
2023-09-29T23:47:35.844Z,12.40
2023-09-29T23:50:04.877Z,12.40
2023-09-29T23:52:34.102Z,12.30
2023-09-29T23:55:02.276Z,12.40
2023-09-29T23:57:32.050Z,12.50
